Terminal Aerodrome Forecast
Issued by NWS

Home | Current Version | Previous Version | Text Only | Print | Product List | Glossary On
Versions: 1 2 3 4 5 6 7 8 9 10 11 12 13 14 15 16
000
FTUS44 KTSA 210500
TAFBVO
TAF
KBVO 210520Z 2106/2206 00000KT 2SM BR SKC
     FM210900 00000KT 1/4SM FG BKN002
     FM211500 11003KT 3SM BR SKC
     FM211800 15004KT P6SM SKC=

USA.gov is the U.S. government's official web portal to all federal, state and local government web resources and services.